createdAt,value
2022-12-25T00:00:05.617Z,6.97
2022-12-25T00:02:13.339Z,7.02
2022-12-25T00:04:21.207Z,7.02
2022-12-25T00:06:29.529Z,7.01
2022-12-25T00:08:38.792Z,7.01
2022-12-25T00:10:49.244Z,7.09
2022-12-25T00:12:57.335Z,7.10
2022-12-25T00:15:05.300Z,7.03
2022-12-25T00:17:13.224Z,6.97
2022-12-25T00:19:21.171Z,7.04
2022-12-25T00:21:29.196Z,7.07
2022-12-25T00:23:38.367Z,7.09
2022-12-25T00:25:46.251Z,7.09
2022-12-25T00:27:56.847Z,7.13
2022-12-25T00:30:04.720Z,7.12
2022-12-25T00:32:12.931Z,7.18
2022-12-25T00:34:20.869Z,7.20
2022-12-25T00:36:28.907Z,7.18
2022-12-25T00:38:38.091Z,7.20
2022-12-25T00:40:47.459Z,7.16
2022-12-25T00:42:55.321Z,7.15
2022-12-25T00:45:04.999Z,7.16
2022-12-25T00:47:13.357Z,7.19
2022-12-25T00:49:21.651Z,7.29
2022-12-25T00:51:29.955Z,7.21
2022-12-25T00:53:37.820Z,7.23
2022-12-25T00:55:45.839Z,7.27
2022-12-25T00:57:53.711Z,7.30
2022-12-25T01:00:04.219Z,7.28
2022-12-25T01:02:27.555Z,7.36
2022-12-25T01:04:35.516Z,7.31
2022-12-25T01:06:44.001Z,7.29
2022-12-25T01:09:04.099Z,7.25
2022-12-25T01:11:12.135Z,7.22
2022-12-25T01:13:19.986Z,7.17
2022-12-25T01:15:30.813Z,7.23
2022-12-25T01:17:38.917Z,7.28
2022-12-25T01:19:46.837Z,7.36
2022-12-25T01:21:54.777Z,7.36
2022-12-25T01:24:02.721Z,7.35
2022-12-25T01:26:12.636Z,7.32
2022-12-25T01:28:20.600Z,7.33
2022-12-25T01:30:31.731Z,7.26
2022-12-25T01:32:39.657Z,7.25
2022-12-25T01:34:52.076Z,7.28
2022-12-25T01:37:03.671Z,7.26
2022-12-25T01:39:11.662Z,7.19
2022-12-25T01:41:21.444Z,7.20
2022-12-25T01:43:31.794Z,7.21
2022-12-25T01:45:48.705Z,7.19
2022-12-25T01:47:56.845Z,7.22
2022-12-25T01:50:04.814Z,7.22
2022-12-25T01:52:21.777Z,7.18
2022-12-25T01:54:34.467Z,7.18
2022-12-25T01:56:45.628Z,7.22
2022-12-25T01:58:53.757Z,7.20
2022-12-25T02:01:04.762Z,7.23
2022-12-25T02:03:12.771Z,7.16
2022-12-25T02:05:26.180Z,7.17
2022-12-25T02:07:37.702Z,7.17
2022-12-25T02:09:45.774Z,7.19
2022-12-25T02:12:00.127Z,7.22
2022-12-25T02:14:08.357Z,7.22
2022-12-25T02:16:22.859Z,7.17
2022-12-25T02:18:40.588Z,7.18
2022-12-25T02:21:03.726Z,7.12
2022-12-25T02:23:43.923Z,7.12
2022-12-25T02:26:09.915Z,7.17
2022-12-25T02:28:25.143Z,7.11
2022-12-25T02:30:38.880Z,7.05
2022-12-25T02:33:15.370Z,7.04
2022-12-25T02:35:28.294Z,7.07
2022-12-25T02:37:43.145Z,7.05
2022-12-25T02:40:00.340Z,7.00
2022-12-25T02:42:14.255Z,7.05
2022-12-25T02:44:45.479Z,7.06
2022-12-25T02:47:06.543Z,7.05
2022-12-25T02:49:31.314Z,7.19
2022-12-25T02:51:56.218Z,7.22
2022-12-25T02:54:22.975Z,7.20
2022-12-25T02:56:45.737Z,7.18
2022-12-25T02:59:06.283Z,7.14
2022-12-25T03:01:33.579Z,7.09
2022-12-25T03:03:57.103Z,7.06
2022-12-25T03:06:19.095Z,7.09
2022-12-25T03:08:33.271Z,7.09
2022-12-25T03:11:00.507Z,7.22
2022-12-25T03:13:15.695Z,7.16
2022-12-25T03:15:36.634Z,7.19
2022-12-25T03:17:47.198Z,7.24
2022-12-25T03:20:07.451Z,7.18
2022-12-25T03:22:31.537Z,7.19
2022-12-25T03:24:51.817Z,7.29
2022-12-25T03:27:00.558Z,7.35
2022-12-25T03:29:08.881Z,7.31
2022-12-25T03:31:21.449Z,7.38
2022-12-25T03:33:46.431Z,7.35
2022-12-25T03:36:04.174Z,7.27
2022-12-25T03:38:46.587Z,7.25
2022-12-25T03:41:18.999Z,7.23
2022-12-25T03:43:46.618Z,7.21
2022-12-25T03:46:13.105Z,7.15
2022-12-25T03:48:33.821Z,7.22
2022-12-25T03:51:01.759Z,7.22
2022-12-25T03:53:26.027Z,7.20
2022-12-25T03:55:47.518Z,7.13
2022-12-25T03:58:07.828Z,7.13
2022-12-25T04:00:29.563Z,7.18
2022-12-25T04:02:52.285Z,7.24
2022-12-25T04:05:12.727Z,7.20
2022-12-25T04:07:35.641Z,7.18
2022-12-25T04:09:55.921Z,7.13
2022-12-25T04:12:16.216Z,7.11
2022-12-25T04:14:36.592Z,7.09
2022-12-25T04:16:56.844Z,7.06
2022-12-25T04:19:17.116Z,7.11
2022-12-25T04:21:37.813Z,7.10
2022-12-25T04:24:00.945Z,7.11
2022-12-25T04:26:21.590Z,7.13
2022-12-25T04:28:41.902Z,7.15
2022-12-25T04:31:02.762Z,7.17
2022-12-25T04:33:22.941Z,7.26
2022-12-25T04:35:49.085Z,7.17
2022-12-25T04:37:56.857Z,7.16
2022-12-25T04:40:08.756Z,7.23
2022-12-25T04:42:16.636Z,7.27
2022-12-25T04:44:24.547Z,7.31
2022-12-25T04:46:32.520Z,7.28
2022-12-25T04:48:40.729Z,7.28
2022-12-25T04:50:48.501Z,7.26
2022-12-25T04:52:56.519Z,7.21
2022-12-25T04:55:08.421Z,7.17
2022-12-25T04:57:16.240Z,7.18
2022-12-25T04:59:24.305Z,7.16
2022-12-25T05:01:32.385Z,7.22
2022-12-25T05:03:40.695Z,7.29
2022-12-25T05:05:48.521Z,7.29
2022-12-25T05:07:56.234Z,7.29
2022-12-25T05:10:04.028Z,7.26
2022-12-25T05:12:15.499Z,7.33
2022-12-25T05:14:23.397Z,7.32
2022-12-25T05:16:31.454Z,7.31
2022-12-25T05:18:39.554Z,7.29
2022-12-25T05:20:54.953Z,7.27
2022-12-25T05:23:02.785Z,7.39
2022-12-25T05:25:11.386Z,7.39
2022-12-25T05:27:21.857Z,7.32
2022-12-25T05:29:30.080Z,7.35
2022-12-25T05:31:38.085Z,7.33
2022-12-25T05:33:45.998Z,7.41
2022-12-25T05:35:53.824Z,7.37
2022-12-25T05:38:01.676Z,7.41
2022-12-25T05:40:10.766Z,7.38
2022-12-25T05:42:22.432Z,7.42
2022-12-25T05:44:30.272Z,7.56
2022-12-25T05:46:38.332Z,7.55
2022-12-25T05:48:46.372Z,7.51
2022-12-25T05:50:54.433Z,7.54
2022-12-25T05:53:07.830Z,7.50
2022-12-25T05:55:17.928Z,7.50
2022-12-25T05:57:28.705Z,7.48
2022-12-25T05:59:37.122Z,7.53
2022-12-25T06:01:45.064Z,7.44
2022-12-25T06:03:53.207Z,7.44
2022-12-25T06:06:05.212Z,7.46
2022-12-25T06:08:13.004Z,7.48
2022-12-25T06:10:21.208Z,7.48
2022-12-25T06:12:31.977Z,7.49
2022-12-25T06:14:39.800Z,7.52
2022-12-25T06:16:48.044Z,7.57
2022-12-25T06:18:56.165Z,7.59
2022-12-25T06:21:03.889Z,7.59
2022-12-25T06:23:13.134Z,7.61
2022-12-25T06:25:21.072Z,7.63
2022-12-25T06:27:31.756Z,7.62
2022-12-25T06:29:39.593Z,7.57
2022-12-25T06:31:47.580Z,7.57
2022-12-25T06:33:55.584Z,7.60
2022-12-25T06:36:08.308Z,7.61
2022-12-25T06:38:16.260Z,7.59
2022-12-25T06:40:24.177Z,7.59
2022-12-25T06:42:34.519Z,7.66
2022-12-25T06:44:42.543Z,7.57
2022-12-25T06:46:51.428Z,7.52
2022-12-25T06:49:01.656Z,7.56
2022-12-25T06:51:10.157Z,7.66
2022-12-25T06:53:20.303Z,7.70
2022-12-25T06:55:28.072Z,7.68
2022-12-25T06:57:38.575Z,7.56
2022-12-25T06:59:49.894Z,7.67
2022-12-25T07:02:03.082Z,7.70
2022-12-25T07:04:16.597Z,7.70
2022-12-25T07:06:24.487Z,7.63
2022-12-25T07:08:32.360Z,7.72
2022-12-25T07:10:40.121Z,7.87
2022-12-25T07:12:52.773Z,7.90
2022-12-25T07:15:00.658Z,7.89
2022-12-25T07:17:12.993Z,7.87
2022-12-25T07:19:22.703Z,7.87
2022-12-25T07:21:35.311Z,7.79
2022-12-25T07:23:45.127Z,7.83
2022-12-25T07:25:57.355Z,7.85
2022-12-25T07:28:19.752Z,7.85
2022-12-25T07:30:30.211Z,7.89
2022-12-25T07:32:46.828Z,7.95
2022-12-25T07:34:58.370Z,8.02
2022-12-25T07:37:06.798Z,7.96
2022-12-25T07:39:16.119Z,7.95
2022-12-25T07:41:24.941Z,7.93
2022-12-25T07:43:42.561Z,7.93
2022-12-25T07:45:50.718Z,7.91
2022-12-25T07:48:04.899Z,8.03
2022-12-25T07:50:15.244Z,7.99
2022-12-25T07:52:24.312Z,7.93
2022-12-25T07:54:33.817Z,8.02
2022-12-25T07:56:43.304Z,7.95
2022-12-25T07:58:58.997Z,7.87
2022-12-25T08:01:08.769Z,7.84
2022-12-25T08:03:17.215Z,7.82
2022-12-25T08:05:26.771Z,7.81
2022-12-25T08:07:35.801Z,7.75
2022-12-25T08:09:47.123Z,7.71
2022-12-25T08:11:58.961Z,7.73
2022-12-25T08:14:11.674Z,7.68
2022-12-25T08:16:21.504Z,7.71
2022-12-25T08:18:33.555Z,7.79
2022-12-25T08:20:42.093Z,7.75
2022-12-25T08:22:50.364Z,7.79
2022-12-25T08:24:59.943Z,7.67
2022-12-25T08:27:09.485Z,7.64
2022-12-25T08:29:20.029Z,7.65
2022-12-25T08:31:29.583Z,7.56
2022-12-25T08:33:42.215Z,7.62
2022-12-25T08:35:50.232Z,7.69
2022-12-25T08:37:59.682Z,7.90
2022-12-25T08:40:09.695Z,8.08
2022-12-25T08:42:20.106Z,8.22
2022-12-25T08:44:35.971Z,8.28
2022-12-25T08:46:44.368Z,8.43
2022-12-25T08:48:54.460Z,8.28
2022-12-25T08:51:06.963Z,8.29
2022-12-25T08:53:18.658Z,8.18
2022-12-25T08:55:30.955Z,8.26
2022-12-25T08:57:39.712Z,8.28
2022-12-25T08:59:50.673Z,8.21
2022-12-25T09:01:58.598Z,8.41
2022-12-25T09:04:06.603Z,8.36
2022-12-25T09:06:18.710Z,8.59
2022-12-25T09:08:26.605Z,8.66
2022-12-25T09:10:38.732Z,8.63
2022-12-25T09:12:46.702Z,8.58
2022-12-25T09:15:01.574Z,8.65
2022-12-25T09:17:09.536Z,8.63
2022-12-25T09:19:22.177Z,8.68
2022-12-25T09:21:29.906Z,8.74
2022-12-25T09:23:41.677Z,8.83
2022-12-25T09:25:49.757Z,9.07
2022-12-25T09:27:58.750Z,9.30
2022-12-25T09:30:12.267Z,9.60
2022-12-25T09:32:20.419Z,10.79
2022-12-25T09:34:28.250Z,11.31
2022-12-25T09:36:36.795Z,11.55
2022-12-25T09:38:44.748Z,11.26
2022-12-25T09:41:02.268Z,11.69
2022-12-25T09:43:18.723Z,12.54
2022-12-25T09:45:34.920Z,13.02
2022-12-25T09:47:45.659Z,13.51
2022-12-25T09:50:01.597Z,14.02
2022-12-25T09:52:14.531Z,15.54
2022-12-25T09:54:28.029Z,16.65
2022-12-25T09:56:36.551Z,17.43
2022-12-25T09:58:44.552Z,17.35
2022-12-25T10:01:04.504Z,16.87
2022-12-25T10:03:53.858Z,15.81
2022-12-25T10:06:14.543Z,14.57
2022-12-25T10:08:37.866Z,13.43
2022-12-25T10:10:54.973Z,12.70
2022-12-25T10:13:12.615Z,12.15
2022-12-25T10:15:35.806Z,11.67
2022-12-25T10:18:07.786Z,11.31
2022-12-25T10:20:27.363Z,11.12
2022-12-25T10:22:39.001Z,10.98
2022-12-25T10:24:51.869Z,10.80
2022-12-25T10:26:59.895Z,10.90
2022-12-25T10:29:15.565Z,10.81
2022-12-25T10:31:26.350Z,10.93
2022-12-25T10:33:36.982Z,10.71
2022-12-25T10:35:45.504Z,10.90
2022-12-25T10:38:01.501Z,10.87
2022-12-25T10:40:31.402Z,11.13
2022-12-25T10:42:49.239Z,11.22
2022-12-25T10:45:01.311Z,11.20
2022-12-25T10:47:09.226Z,11.34
2022-12-25T10:49:22.959Z,11.48
2022-12-25T10:51:35.018Z,11.31
2022-12-25T10:53:45.954Z,11.11
2022-12-25T10:55:58.395Z,11.31
2022-12-25T10:58:06.437Z,11.20
2022-12-25T11:00:23.441Z,11.24
2022-12-25T11:02:38.225Z,11.36
2022-12-25T11:04:49.363Z,11.42
2022-12-25T11:07:04.403Z,11.36
2022-12-25T11:09:20.159Z,11.37
2022-12-25T11:11:30.910Z,11.37
2022-12-25T11:13:42.496Z,11.38
2022-12-25T11:15:52.196Z,11.46
2022-12-25T11:18:00.451Z,11.28
2022-12-25T11:20:23.216Z,11.17
2022-12-25T11:22:40.011Z,11.26
2022-12-25T11:24:47.912Z,11.24
2022-12-25T11:26:58.521Z,11.39
2022-12-25T11:29:08.322Z,11.22
2022-12-25T11:31:24.398Z,11.38
2022-12-25T11:33:38.175Z,11.58
2022-12-25T11:35:53.425Z,11.57
2022-12-25T11:38:01.845Z,11.54
2022-12-25T11:40:18.230Z,11.55
2022-12-25T11:42:30.097Z,11.60
2022-12-25T11:44:45.438Z,11.57
2022-12-25T11:46:55.195Z,11.59
2022-12-25T11:49:08.585Z,11.66
2022-12-25T11:51:20.721Z,11.76
2022-12-25T11:53:34.992Z,11.83
2022-12-25T11:55:46.277Z,11.94
2022-12-25T11:58:00.403Z,12.21
2022-12-25T12:00:11.289Z,12.23
2022-12-25T12:02:27.909Z,12.17
2022-12-25T12:04:43.175Z,12.03
2022-12-25T12:06:59.147Z,11.91
2022-12-25T12:09:20.731Z,11.89
2022-12-25T12:11:38.803Z,11.87
2022-12-25T12:14:05.293Z,11.81
2022-12-25T12:16:13.506Z,11.78
2022-12-25T12:18:24.859Z,11.84
2022-12-25T12:20:35.749Z,11.86
2022-12-25T12:22:53.125Z,11.92
2022-12-25T12:25:04.450Z,11.95
2022-12-25T12:27:27.339Z,11.95
2022-12-25T12:29:42.978Z,12.03
2022-12-25T12:31:53.949Z,11.74
2022-12-25T12:34:02.499Z,11.87
2022-12-25T12:36:16.159Z,11.88
2022-12-25T12:38:27.738Z,11.79
2022-12-25T12:40:39.356Z,11.82
2022-12-25T12:42:50.724Z,11.65
2022-12-25T12:45:00.957Z,11.64
2022-12-25T12:47:08.836Z,11.68
2022-12-25T12:49:25.143Z,11.72
2022-12-25T12:51:34.774Z,11.83
2022-12-25T12:53:46.370Z,11.92
2022-12-25T12:55:55.597Z,12.08
2022-12-25T12:58:05.302Z,12.22
2022-12-25T13:00:20.204Z,12.26
2022-12-25T13:02:56.379Z,12.30
2022-12-25T13:05:06.682Z,12.31
2022-12-25T13:07:32.342Z,12.46
2022-12-25T13:09:57.335Z,12.36
2022-12-25T13:12:09.552Z,12.23
2022-12-25T13:14:20.580Z,12.10
2022-12-25T13:16:32.308Z,12.00
2022-12-25T13:18:42.584Z,11.96
2022-12-25T13:20:55.312Z,11.96
2022-12-25T13:23:03.226Z,12.01
2022-12-25T13:25:23.707Z,12.01
2022-12-25T13:27:33.713Z,11.98
2022-12-25T13:29:41.931Z,12.12
2022-12-25T13:31:50.888Z,12.12
2022-12-25T13:34:02.785Z,12.00
2022-12-25T13:36:14.286Z,11.89
2022-12-25T13:38:22.731Z,11.85
2022-12-25T13:40:33.352Z,11.85
2022-12-25T13:42:40.002Z,11.82
2022-12-25T13:44:50.851Z,11.84
2022-12-25T13:46:58.659Z,11.85
2022-12-25T13:49:15.242Z,11.87
2022-12-25T13:51:23.499Z,11.83
2022-12-25T13:53:31.605Z,11.81
2022-12-25T13:55:42.884Z,11.82
2022-12-25T13:57:55.547Z,11.79
2022-12-25T14:00:04.588Z,11.76
2022-12-25T14:02:22.969Z,11.72
2022-12-25T14:04:31.751Z,11.69
2022-12-25T14:06:39.665Z,11.82
2022-12-25T14:08:48.698Z,11.91
2022-12-25T14:11:00.193Z,11.87
2022-12-25T14:13:11.380Z,11.79
2022-12-25T14:15:23.307Z,11.85
2022-12-25T14:17:31.329Z,11.86
2022-12-25T14:19:39.211Z,11.80
2022-12-25T14:21:49.515Z,11.79
2022-12-25T14:23:57.743Z,11.79
2022-12-25T14:26:08.352Z,11.76
2022-12-25T14:28:22.574Z,11.68
2022-12-25T14:30:32.409Z,11.62
2022-12-25T14:32:46.527Z,11.65
2022-12-25T14:34:57.123Z,11.56
2022-12-25T14:37:07.180Z,11.49
2022-12-25T14:39:29.840Z,11.41
2022-12-25T14:41:42.441Z,11.32
2022-12-25T14:43:55.063Z,11.21
2022-12-25T14:46:06.420Z,11.17
2022-12-25T14:48:24.771Z,11.09
2022-12-25T14:50:37.502Z,11.02
2022-12-25T14:52:47.722Z,11.00
2022-12-25T14:55:11.745Z,10.96
2022-12-25T14:57:22.988Z,10.97
2022-12-25T14:59:31.015Z,10.94
2022-12-25T15:01:41.936Z,10.89
2022-12-25T15:03:50.749Z,10.93
2022-12-25T15:06:03.017Z,10.87
2022-12-25T15:08:26.080Z,10.85
2022-12-25T15:13:05.397Z,10.77
2022-12-25T15:15:13.789Z,10.73
2022-12-25T15:17:28.436Z,10.71
2022-12-25T15:19:39.163Z,10.66
2022-12-25T15:21:47.360Z,10.64
2022-12-25T15:23:55.888Z,10.66
2022-12-25T15:26:06.419Z,10.62
2022-12-25T15:28:14.515Z,10.57
2022-12-25T15:30:23.026Z,10.51
2022-12-25T15:32:30.859Z,10.48
2022-12-25T15:34:38.698Z,10.51
2022-12-25T15:36:47.289Z,10.53
2022-12-25T15:38:56.536Z,10.65
2022-12-25T15:41:07.464Z,10.70
2022-12-25T15:45:46.904Z,10.87
2022-12-25T15:47:58.123Z,10.82
2022-12-25T15:50:06.371Z,10.79
2022-12-25T15:52:17.673Z,10.77
2022-12-25T15:54:25.538Z,10.76
2022-12-25T15:56:43.156Z,10.73
2022-12-25T15:58:50.946Z,10.94
2022-12-25T16:00:59.220Z,10.93
2022-12-25T16:03:07.667Z,10.90
2022-12-25T16:05:15.653Z,10.87
2022-12-25T16:07:26.050Z,10.85
2022-12-25T16:09:33.900Z,10.88
2022-12-25T16:11:44.872Z,10.81
2022-12-25T16:13:52.721Z,10.75
2022-12-25T16:16:01.731Z,10.74
2022-12-25T16:18:10.014Z,10.76
2022-12-25T16:20:18.406Z,10.69
2022-12-25T16:22:28.733Z,10.68
2022-12-25T16:24:36.672Z,10.67
2022-12-25T16:26:47.485Z,10.63
2022-12-25T16:28:55.327Z,10.56
2022-12-25T16:31:03.216Z,10.58
2022-12-25T16:33:13.316Z,10.66
2022-12-25T16:35:21.420Z,10.64
2022-12-25T16:37:30.026Z,10.61
2022-12-25T16:39:37.989Z,10.58
2022-12-25T16:41:49.044Z,10.63
2022-12-25T16:43:56.992Z,10.60
2022-12-25T16:46:10.573Z,10.58
2022-12-25T16:48:18.550Z,10.46
2022-12-25T16:50:26.667Z,10.37
2022-12-25T16:52:35.876Z,10.30
2022-12-25T16:54:43.744Z,10.40
2022-12-25T16:56:54.652Z,10.41
2022-12-25T16:59:02.645Z,10.47
2022-12-25T17:01:11.872Z,10.44
2022-12-25T17:03:19.765Z,10.39
2022-12-25T17:05:27.899Z,10.56
2022-12-25T17:07:37.935Z,10.54
2022-12-25T17:09:46.486Z,10.52
2022-12-25T17:11:57.061Z,10.38
2022-12-25T17:14:07.031Z,10.35
2022-12-25T17:16:16.955Z,10.17
2022-12-25T17:18:25.035Z,10.06
2022-12-25T17:20:32.985Z,9.97
2022-12-25T17:22:40.816Z,9.96
2022-12-25T17:24:48.675Z,9.83
2022-12-25T17:26:59.262Z,9.83
2022-12-25T17:29:07.124Z,9.74
2022-12-25T17:31:17.145Z,9.69
2022-12-25T17:33:24.987Z,9.75
2022-12-25T17:35:32.868Z,9.72
2022-12-25T17:37:41.069Z,9.93
2022-12-25T17:39:50.012Z,10.02
2022-12-25T17:42:00.642Z,10.11
2022-12-25T17:44:08.744Z,10.16
2022-12-25T17:46:18.996Z,10.17
2022-12-25T17:48:27.141Z,10.20
2022-12-25T17:50:41.033Z,10.18
2022-12-25T17:52:49.372Z,10.43
2022-12-25T17:54:57.100Z,10.38
2022-12-25T17:57:07.804Z,10.49
2022-12-25T17:59:18.852Z,10.45
2022-12-25T18:01:29.310Z,10.39
2022-12-25T18:03:37.617Z,10.41
2022-12-25T18:05:45.629Z,10.43
2022-12-25T18:07:53.523Z,10.55
2022-12-25T18:10:02.158Z,10.47
2022-12-25T18:12:12.907Z,10.42
2022-12-25T18:14:21.061Z,10.33
2022-12-25T18:16:30.342Z,10.32
2022-12-25T18:18:38.751Z,10.35
2022-12-25T18:20:46.740Z,10.43
2022-12-25T18:22:55.653Z,10.38
2022-12-25T18:25:03.512Z,10.36
2022-12-25T18:27:14.169Z,10.39
2022-12-25T18:29:21.947Z,10.28
2022-12-25T18:31:30.620Z,10.16
2022-12-25T18:33:38.637Z,10.16
2022-12-25T18:35:47.782Z,10.21
2022-12-25T18:37:55.828Z,10.14
2022-12-25T18:40:03.932Z,10.10
2022-12-25T18:42:26.929Z,10.07
2022-12-25T18:44:34.940Z,10.03
2022-12-25T18:46:42.711Z,10.09
2022-12-25T18:48:50.701Z,10.02
2022-12-25T18:51:01.255Z,9.87
2022-12-25T18:53:10.401Z,9.83
2022-12-25T18:55:18.355Z,9.80
2022-12-25T18:57:29.412Z,9.74
2022-12-25T18:59:37.271Z,9.80
2022-12-25T19:01:45.410Z,9.79
2022-12-25T19:04:00.178Z,9.74
2022-12-25T19:06:12.505Z,9.70
2022-12-25T19:08:20.561Z,9.70
2022-12-25T19:10:28.457Z,9.68
2022-12-25T19:12:39.913Z,9.71
2022-12-25T19:14:48.634Z,9.73
2022-12-25T19:16:57.111Z,9.76
2022-12-25T19:19:05.655Z,9.83
2022-12-25T19:21:16.255Z,9.84
2022-12-25T19:23:24.245Z,9.72
2022-12-25T19:25:32.500Z,9.80
2022-12-25T19:27:43.280Z,10.09
2022-12-25T19:29:51.233Z,9.88
2022-12-25T19:31:59.519Z,10.00
2022-12-25T19:34:07.935Z,9.87
2022-12-25T19:36:17.855Z,9.87
2022-12-25T19:38:25.879Z,9.85
2022-12-25T19:40:34.995Z,9.97
2022-12-25T19:42:47.308Z,10.01
2022-12-25T19:44:55.972Z,9.92
2022-12-25T19:47:03.873Z,9.95
2022-12-25T19:49:15.264Z,10.25
2022-12-25T19:51:25.497Z,10.08
2022-12-25T19:53:34.498Z,10.05
2022-12-25T19:55:42.392Z,10.01
2022-12-25T19:57:52.977Z,10.09
2022-12-25T20:00:00.856Z,10.04
2022-12-25T20:02:09.028Z,10.13
2022-12-25T20:04:18.280Z,10.08
2022-12-25T20:06:28.347Z,10.08
2022-12-25T20:08:37.085Z,10.10
2022-12-25T20:10:46.739Z,10.11
2022-12-25T20:12:57.425Z,10.19
2022-12-25T20:15:07.755Z,10.20
2022-12-25T20:17:16.291Z,10.16
2022-12-25T20:19:24.446Z,10.17
2022-12-25T20:21:33.027Z,10.15
2022-12-25T20:23:41.124Z,10.09
2022-12-25T20:25:49.409Z,10.11
2022-12-25T20:28:00.501Z,10.05
2022-12-25T20:30:09.804Z,10.06
2022-12-25T20:32:19.293Z,9.98
2022-12-25T20:34:27.432Z,9.94
2022-12-25T20:36:42.593Z,9.88
2022-12-25T20:38:50.444Z,9.94
2022-12-25T20:41:26.380Z,9.93
2022-12-25T20:43:33.006Z,9.87
2022-12-25T20:45:47.070Z,9.92
2022-12-25T20:47:55.238Z,9.85
2022-12-25T20:50:03.682Z,9.90
2022-12-25T20:52:11.831Z,9.94
2022-12-25T20:54:19.568Z,9.85
2022-12-25T20:56:30.448Z,9.79
2022-12-25T20:58:41.318Z,9.74
2022-12-25T21:00:49.314Z,9.81
2022-12-25T21:02:57.724Z,9.89
2022-12-25T21:05:07.082Z,9.94
2022-12-25T21:07:15.103Z,9.91
2022-12-25T21:09:23.507Z,9.87
2022-12-25T21:11:32.239Z,10.03
2022-12-25T21:13:45.496Z,10.03
2022-12-25T21:15:54.993Z,10.13
2022-12-25T21:18:03.844Z,10.11
2022-12-25T21:20:12.136Z,10.09
2022-12-25T21:22:26.836Z,10.24
2022-12-25T21:24:36.119Z,10.18
2022-12-25T21:26:47.976Z,10.27
2022-12-25T21:29:03.237Z,10.20
2022-12-25T21:31:14.074Z,10.16
2022-12-25T21:33:34.485Z,10.22
2022-12-25T21:35:42.323Z,10.32
2022-12-25T21:37:53.098Z,10.47
2022-12-25T21:40:11.330Z,10.43
2022-12-25T21:42:25.330Z,10.29
2022-12-25T21:44:36.073Z,10.42
2022-12-25T21:46:44.389Z,10.32
2022-12-25T21:48:52.655Z,10.28
2022-12-25T21:51:20.519Z,10.14
2022-12-25T21:53:29.237Z,10.15
2022-12-25T21:55:42.288Z,10.15
2022-12-25T21:57:50.617Z,10.34
2022-12-25T22:00:00.996Z,10.25
2022-12-25T22:02:13.340Z,10.22
2022-12-25T22:04:23.219Z,10.09
2022-12-25T22:06:45.578Z,10.13
2022-12-25T22:08:53.647Z,10.15
2022-12-25T22:11:01.971Z,10.13
2022-12-25T22:13:22.331Z,10.17
2022-12-25T22:15:45.515Z,10.13
2022-12-25T22:18:05.788Z,10.19
2022-12-25T22:20:17.648Z,10.26
2022-12-25T22:22:27.591Z,10.29
2022-12-25T22:24:35.911Z,10.25
2022-12-25T22:26:44.730Z,10.08
2022-12-25T22:28:52.531Z,10.13
2022-12-25T22:31:06.345Z,10.01
2022-12-25T22:33:14.435Z,9.98
2022-12-25T22:35:23.290Z,10.01
2022-12-25T22:37:31.048Z,9.89
2022-12-25T22:39:39.599Z,9.81
2022-12-25T22:41:48.162Z,9.79
2022-12-25T22:46:27.162Z,9.83
2022-12-25T22:48:35.156Z,9.79
2022-12-25T22:50:43.040Z,9.75
2022-12-25T22:52:50.968Z,9.81
2022-12-25T22:54:58.963Z,9.79
2022-12-25T22:57:07.443Z,9.74
2022-12-25T22:59:17.191Z,9.68
2022-12-25T23:01:27.829Z,9.58
2022-12-25T23:03:36.061Z,9.61
2022-12-25T23:05:44.155Z,9.54
2022-12-25T23:07:51.874Z,9.50
2022-12-25T23:09:59.865Z,9.44
2022-12-25T23:12:28.969Z,9.48
2022-12-25T23:14:39.516Z,9.44
2022-12-25T23:16:50.392Z,9.41
2022-12-25T23:19:11.182Z,9.31
2022-12-25T23:21:33.420Z,9.21
2022-12-25T23:23:53.922Z,9.20
2022-12-25T23:26:12.060Z,9.18
2022-12-25T23:28:40.501Z,9.15
2022-12-25T23:30:46.205Z,9.01
2022-12-25T23:32:56.888Z,8.93
2022-12-25T23:35:05.093Z,8.92
2022-12-25T23:37:14.070Z,8.91
2022-12-25T23:39:22.487Z,8.88
2022-12-25T23:41:31.658Z,8.87
2022-12-25T23:43:40.141Z,8.83
2022-12-25T23:45:48.077Z,8.78
2022-12-25T23:48:00.476Z,8.69
2022-12-25T23:50:11.882Z,8.64
2022-12-25T23:52:20.036Z,8.59
2022-12-25T23:54:31.277Z,8.62
2022-12-25T23:56:40.749Z,8.63
2022-12-25T23:58:51.972Z,8.65
